createdAt,value
2019-03-15T00:00:55.095Z,5.00
2019-03-15T00:03:22.731Z,5.00
2019-03-15T00:05:50.625Z,5.10
2019-03-15T00:08:18.831Z,5.10
2019-03-15T00:10:46.277Z,5.00
2019-03-15T00:13:14.238Z,5.20
2019-03-15T00:15:41.793Z,5.30
2019-03-15T00:18:09.328Z,5.20
2019-03-15T00:20:36.806Z,5.30
2019-03-15T00:23:04.533Z,5.30
2019-03-15T00:25:32.099Z,5.30
2019-03-15T00:27:59.717Z,5.50
2019-03-15T00:30:27.440Z,5.50
2019-03-15T00:32:55.104Z,5.70
2019-03-15T00:35:22.411Z,5.50
2019-03-15T00:37:50.951Z,5.60
2019-03-15T00:40:18.486Z,5.70
2019-03-15T00:42:45.998Z,5.60
2019-03-15T00:45:13.540Z,5.70
2019-03-15T00:47:41.042Z,5.80
2019-03-15T00:50:10.104Z,5.60
2019-03-15T00:52:37.833Z,5.70
2019-03-15T00:55:06.082Z,5.60
2019-03-15T00:57:34.317Z,5.70
2019-03-15T01:00:02.208Z,5.60
2019-03-15T01:02:29.674Z,5.50
2019-03-15T01:04:57.956Z,5.60
2019-03-15T01:07:25.967Z,5.50
2019-03-15T01:09:54.216Z,5.60
2019-03-15T01:12:22.495Z,5.60
2019-03-15T01:14:49.743Z,5.60
2019-03-15T01:17:17.395Z,5.50
2019-03-15T01:19:45.005Z,5.60
2019-03-15T01:22:12.855Z,5.70
2019-03-15T01:24:40.631Z,5.80
2019-03-15T01:27:08.665Z,5.80
2019-03-15T01:29:36.651Z,5.80
2019-03-15T01:32:04.050Z,5.80
2019-03-15T01:34:31.323Z,5.70
2019-03-15T01:36:59.045Z,5.80
2019-03-15T01:39:27.249Z,5.80
2019-03-15T01:41:55.409Z,5.70
2019-03-15T01:44:23.971Z,5.70
2019-03-15T01:46:51.278Z,5.70
2019-03-15T01:49:19.249Z,5.70
2019-03-15T01:51:46.951Z,5.80
2019-03-15T01:54:14.731Z,5.70
2019-03-15T01:56:42.918Z,5.70
2019-03-15T01:59:10.219Z,5.70
2019-03-15T02:05:25.164Z,5.80
2019-03-15T02:07:53.562Z,5.90
2019-03-15T02:10:22.364Z,5.90
2019-03-15T02:12:50.035Z,5.90
2019-03-15T02:15:18.505Z,5.90
2019-03-15T02:17:46.039Z,5.90
2019-03-15T02:20:14.303Z,5.90
2019-03-15T02:22:41.907Z,6.00
2019-03-15T02:25:09.368Z,5.90
2019-03-15T02:27:37.461Z,5.90
2019-03-15T02:30:05.744Z,6.00
2019-03-15T02:32:33.513Z,6.00
2019-03-15T02:35:00.977Z,6.00
2019-03-15T02:37:28.113Z,6.20
2019-03-15T02:39:55.638Z,6.10
2019-03-15T02:42:23.365Z,6.10
2019-03-15T02:44:51.587Z,6.20
2019-03-15T02:47:19.592Z,6.10
2019-03-15T02:49:47.649Z,6.20
2019-03-15T02:52:15.930Z,6.30
2019-03-15T02:54:43.666Z,6.30
2019-03-15T02:57:11.702Z,6.30
2019-03-15T02:59:39.022Z,6.20
2019-03-15T03:02:06.653Z,6.20
2019-03-15T03:04:34.628Z,6.30
2019-03-15T03:07:02.711Z,6.30
2019-03-15T03:09:30.811Z,6.30
2019-03-15T03:11:58.548Z,6.20
2019-03-15T03:14:26.322Z,6.30
2019-03-15T03:16:54.393Z,6.30
2019-03-15T03:19:21.698Z,6.30
2019-03-15T03:21:49.541Z,6.30
2019-03-15T03:24:16.834Z,6.30
2019-03-15T03:26:44.774Z,6.30
2019-03-15T03:29:12.744Z,6.30
2019-03-15T03:31:40.898Z,6.30
2019-03-15T03:34:08.603Z,6.30
2019-03-15T03:36:36.605Z,6.30
2019-03-15T03:39:06.363Z,6.30
2019-03-15T03:41:34.118Z,6.30
2019-03-15T03:44:01.521Z,6.30
2019-03-15T03:46:28.969Z,6.30
2019-03-15T03:48:56.817Z,6.40
2019-03-15T03:51:24.136Z,6.30
2019-03-15T03:53:51.868Z,6.30
2019-03-15T03:56:20.018Z,6.30
2019-03-15T03:58:47.603Z,6.30
2019-03-15T04:01:15.196Z,6.30
2019-03-15T04:03:42.919Z,6.40
2019-03-15T04:06:10.986Z,6.30
2019-03-15T04:08:39.104Z,6.30
2019-03-15T04:11:06.748Z,6.30
2019-03-15T04:13:33.896Z,6.30
2019-03-15T04:16:01.276Z,6.30
2019-03-15T04:18:29.166Z,6.40
2019-03-15T04:20:56.548Z,6.40
2019-03-15T04:23:24.397Z,6.40
2019-03-15T04:25:52.902Z,6.40
2019-03-15T04:28:20.804Z,6.40
2019-03-15T04:30:48.693Z,6.30
2019-03-15T04:33:16.784Z,6.30
2019-03-15T04:35:43.988Z,6.40
2019-03-15T04:38:11.568Z,6.40
2019-03-15T04:40:39.868Z,6.40
2019-03-15T04:43:07.172Z,6.40
2019-03-15T04:45:34.643Z,6.40
2019-03-15T04:48:02.611Z,6.40
2019-03-15T04:50:30.180Z,6.40
2019-03-15T04:52:59.172Z,6.50
2019-03-15T04:55:26.495Z,6.50
2019-03-15T04:57:54.270Z,6.40
2019-03-15T05:00:22.278Z,6.50
2019-03-15T05:02:49.981Z,6.50
2019-03-15T05:05:17.588Z,6.50
2019-03-15T05:07:44.993Z,6.50
2019-03-15T05:10:13.155Z,6.50
2019-03-15T05:12:40.458Z,6.50
2019-03-15T05:15:08.686Z,6.60
2019-03-15T05:17:36.333Z,6.50
2019-03-15T05:20:05.172Z,6.50
2019-03-15T05:22:33.744Z,6.60
2019-03-15T05:25:01.667Z,6.60
2019-03-15T05:27:29.411Z,6.60
2019-03-15T05:29:57.320Z,6.50
2019-03-15T05:32:25.124Z,6.50
2019-03-15T05:34:52.818Z,6.50
2019-03-15T05:37:20.568Z,6.60
2019-03-15T05:39:47.933Z,6.50
2019-03-15T05:42:15.212Z,6.50
2019-03-15T05:44:43.126Z,6.50
2019-03-15T05:47:10.819Z,6.50
2019-03-15T05:49:38.499Z,6.50
2019-03-15T05:52:06.200Z,6.60
2019-03-15T05:54:34.663Z,6.60
2019-03-15T05:57:02.308Z,6.60
2019-03-15T05:59:30.565Z,6.50
2019-03-15T06:01:58.135Z,6.50
2019-03-15T06:04:25.619Z,6.50
2019-03-15T06:06:53.015Z,6.60
2019-03-15T06:09:21.375Z,6.50
2019-03-15T06:11:48.950Z,6.60
2019-03-15T06:14:17.037Z,6.60
2019-03-15T06:16:44.637Z,6.50
2019-03-15T06:19:12.054Z,6.60
2019-03-15T06:21:39.922Z,6.60
2019-03-15T06:24:07.351Z,6.60
2019-03-15T06:26:35.113Z,6.60
2019-03-15T06:29:02.671Z,6.60
2019-03-15T06:31:30.101Z,6.60
2019-03-15T06:33:57.663Z,6.60
2019-03-15T06:36:25.591Z,6.60
2019-03-15T06:38:53.036Z,6.60
2019-03-15T06:41:20.759Z,6.70
2019-03-15T06:43:48.928Z,6.70
2019-03-15T06:46:16.319Z,6.70
2019-03-15T06:48:45.266Z,6.80
2019-03-15T06:51:13.584Z,6.80
2019-03-15T06:53:41.308Z,6.80
2019-03-15T06:56:08.633Z,6.80
2019-03-15T06:58:36.463Z,6.80
2019-03-15T07:01:04.557Z,6.80
2019-03-15T07:03:32.788Z,6.80
2019-03-15T07:06:00.220Z,6.80
2019-03-15T07:08:28.275Z,6.80
2019-03-15T07:10:56.242Z,6.80
2019-03-15T07:13:24.813Z,6.80
2019-03-15T07:15:52.762Z,6.80
2019-03-15T07:18:20.883Z,6.80
2019-03-15T07:20:48.425Z,6.80
2019-03-15T07:23:15.894Z,6.80
2019-03-15T07:25:43.689Z,6.80
2019-03-15T07:28:11.657Z,6.80
2019-03-15T07:30:39.915Z,6.80
2019-03-15T07:33:07.721Z,6.80
2019-03-15T07:35:35.276Z,6.90
2019-03-15T07:38:03.220Z,6.90
2019-03-15T07:40:30.632Z,6.90
2019-03-15T07:43:02.020Z,6.90
2019-03-15T07:45:28.003Z,7.00
2019-03-15T07:47:56.382Z,6.90
2019-03-15T07:50:31.656Z,7.00
2019-03-15T07:52:59.617Z,7.00
2019-03-15T07:55:27.137Z,7.00
2019-03-15T07:57:55.677Z,7.00
2019-03-15T08:00:23.242Z,7.00
2019-03-15T08:02:51.723Z,7.10
2019-03-15T08:05:22.089Z,7.10
2019-03-15T08:07:51.860Z,7.10
2019-03-15T08:10:18.982Z,7.10
2019-03-15T08:12:52.979Z,7.10
2019-03-15T08:15:30.496Z,7.20
2019-03-15T08:18:09.178Z,7.20
2019-03-15T08:20:38.708Z,7.20
2019-03-15T08:23:08.862Z,7.20
2019-03-15T08:25:37.661Z,7.20
2019-03-15T08:28:05.203Z,7.20
2019-03-15T08:30:35.591Z,7.20
2019-03-15T08:33:10.420Z,7.30
2019-03-15T08:35:35.665Z,7.20
2019-03-15T08:38:05.607Z,7.30
2019-03-15T08:40:33.885Z,7.30
2019-03-15T08:43:01.602Z,7.30
2019-03-15T08:45:29.173Z,7.40
2019-03-15T08:47:57.296Z,7.40
2019-03-15T08:50:24.788Z,7.40
2019-03-15T08:52:54.161Z,7.40
2019-03-15T08:55:22.450Z,7.40
2019-03-15T08:57:50.447Z,7.50
2019-03-15T09:00:18.618Z,7.50
2019-03-15T09:02:47.013Z,7.50
2019-03-15T09:05:14.562Z,7.50
2019-03-15T09:07:42.585Z,7.50
2019-03-15T09:10:21.759Z,7.60
2019-03-15T09:12:40.045Z,7.60
2019-03-15T09:15:08.502Z,7.60
2019-03-15T09:17:36.189Z,7.70
2019-03-15T09:20:04.349Z,7.70
2019-03-15T09:22:31.874Z,7.70
2019-03-15T09:24:59.372Z,7.80
2019-03-15T09:27:27.360Z,7.80
2019-03-15T09:29:55.460Z,7.70
2019-03-15T09:32:23.168Z,7.80
2019-03-15T09:34:50.782Z,7.80
2019-03-15T09:37:19.067Z,7.80
2019-03-15T09:39:46.357Z,7.90
2019-03-15T09:42:14.116Z,7.90
2019-03-15T09:44:41.790Z,7.90
2019-03-15T09:47:09.365Z,8.00
2019-03-15T09:49:37.138Z,8.10
2019-03-15T09:52:04.651Z,8.10
2019-03-15T09:54:32.504Z,8.00
2019-03-15T09:57:00.078Z,8.10
2019-03-15T09:59:27.952Z,8.20
2019-03-15T10:01:55.306Z,8.20
2019-03-15T10:04:22.923Z,8.30
2019-03-15T10:06:50.686Z,8.40
2019-03-15T10:09:18.365Z,8.30
2019-03-15T10:11:46.242Z,8.40
2019-03-15T10:14:13.729Z,8.50
2019-03-15T10:16:40.990Z,8.60
2019-03-15T10:19:08.417Z,8.70
2019-03-15T10:21:36.235Z,8.70
2019-03-15T10:24:04.141Z,8.80
2019-03-15T10:26:31.613Z,8.90
2019-03-15T10:29:15.136Z,9.10
2019-03-15T10:31:36.938Z,9.30
2019-03-15T10:34:05.920Z,9.30
2019-03-15T10:36:34.737Z,9.40
2019-03-15T10:39:02.306Z,9.40
2019-03-15T10:41:29.725Z,9.40
2019-03-15T10:43:57.542Z,9.40
2019-03-15T10:46:25.620Z,9.30
2019-03-15T10:48:53.223Z,9.40
2019-03-15T10:51:20.973Z,9.60
2019-03-15T10:53:48.559Z,9.60
2019-03-15T10:56:16.552Z,9.70
2019-03-15T10:58:46.006Z,9.90
2019-03-15T11:01:13.870Z,9.80
2019-03-15T11:03:41.224Z,10.00
2019-03-15T11:06:08.775Z,10.20
2019-03-15T11:08:36.665Z,10.40
2019-03-15T11:11:04.670Z,10.50
2019-03-15T11:13:32.566Z,10.40
2019-03-15T11:16:00.447Z,10.60
2019-03-15T11:18:27.682Z,10.80
2019-03-15T11:20:55.889Z,10.90
2019-03-15T11:23:23.658Z,10.80
2019-03-15T11:25:51.579Z,10.80
2019-03-15T11:28:19.257Z,10.80
2019-03-15T11:30:46.574Z,10.90
2019-03-15T11:33:14.131Z,11.00
2019-03-15T11:35:41.981Z,11.00
2019-03-15T11:38:10.115Z,10.80
2019-03-15T11:40:38.271Z,10.80
2019-03-15T11:43:06.102Z,11.00
2019-03-15T11:45:33.619Z,11.00
2019-03-15T11:48:03.929Z,10.90
2019-03-15T11:50:31.202Z,10.80
2019-03-15T11:52:59.027Z,10.70
2019-03-15T11:55:29.635Z,10.60
2019-03-15T11:57:57.329Z,10.60
2019-03-15T12:00:25.612Z,10.60
2019-03-15T12:02:53.138Z,10.60
2019-03-15T12:05:21.153Z,10.70
2019-03-15T12:07:49.046Z,10.60
2019-03-15T12:10:17.026Z,10.60
2019-03-15T12:12:45.041Z,10.70
2019-03-15T12:15:12.911Z,10.70
2019-03-15T12:17:40.789Z,10.70
2019-03-15T12:20:08.917Z,10.80
2019-03-15T12:22:36.786Z,10.90
2019-03-15T12:25:04.371Z,11.00
2019-03-15T12:27:32.011Z,11.10
2019-03-15T12:29:59.608Z,11.10
2019-03-15T12:32:27.000Z,11.20
2019-03-15T12:34:54.814Z,11.20
2019-03-15T12:37:22.532Z,11.30
2019-03-15T12:39:50.059Z,11.40
2019-03-15T12:42:18.486Z,11.50
2019-03-15T12:44:46.086Z,11.50
2019-03-15T12:47:13.953Z,11.60
2019-03-15T12:49:42.305Z,11.60
2019-03-15T12:52:09.747Z,11.70
2019-03-15T12:54:37.915Z,11.80
2019-03-15T12:57:05.344Z,11.90
2019-03-15T12:59:33.798Z,12.00
2019-03-15T13:02:01.330Z,12.00
2019-03-15T13:04:29.167Z,12.00
2019-03-15T13:06:56.808Z,12.10
2019-03-15T13:09:24.776Z,12.10
2019-03-15T13:11:52.542Z,12.10
2019-03-15T13:14:20.274Z,12.10
2019-03-15T13:16:48.094Z,12.20
2019-03-15T13:19:16.264Z,12.20
2019-03-15T13:21:44.035Z,12.30
2019-03-15T13:24:16.456Z,12.30
2019-03-15T13:26:43.999Z,12.40
2019-03-15T13:29:12.358Z,12.40
2019-03-15T13:31:40.108Z,12.50
2019-03-15T13:34:07.904Z,12.60
2019-03-15T13:36:36.461Z,12.70
2019-03-15T13:39:06.301Z,12.70
2019-03-15T13:41:33.900Z,12.80
2019-03-15T13:44:01.851Z,12.80
2019-03-15T13:46:29.111Z,12.80
2019-03-15T13:48:57.380Z,12.90
2019-03-15T13:51:25.154Z,12.80
2019-03-15T13:53:53.155Z,12.90
2019-03-15T13:56:21.279Z,12.90
2019-03-15T13:58:57.087Z,13.00
2019-03-15T14:01:18.794Z,13.00
2019-03-15T14:03:46.989Z,13.00
2019-03-15T14:06:14.527Z,13.00
2019-03-15T14:08:42.042Z,13.10
2019-03-15T14:11:09.578Z,13.10
2019-03-15T14:13:37.950Z,13.10
2019-03-15T14:16:05.519Z,13.10
2019-03-15T14:18:33.082Z,13.10
2019-03-15T14:21:00.423Z,13.20
2019-03-15T14:23:28.263Z,13.20
2019-03-15T14:25:56.240Z,13.10
2019-03-15T14:28:23.507Z,13.20
2019-03-15T14:30:51.371Z,13.20
2019-03-15T14:33:19.019Z,13.20
2019-03-15T14:35:46.988Z,13.30
2019-03-15T14:38:14.846Z,13.30
2019-03-15T14:40:42.705Z,13.40
2019-03-15T14:43:10.204Z,13.50
2019-03-15T14:45:37.487Z,13.60
2019-03-15T14:48:05.276Z,13.50
2019-03-15T14:50:32.928Z,13.50
2019-03-15T14:53:00.530Z,13.60
2019-03-15T14:55:28.488Z,13.70
2019-03-15T14:57:56.063Z,13.70
2019-03-15T15:00:23.772Z,13.60
2019-03-15T15:02:51.449Z,13.60
2019-03-15T15:05:18.739Z,13.50
2019-03-15T15:07:46.386Z,13.60
2019-03-15T15:10:13.819Z,13.50
2019-03-15T15:12:41.877Z,13.50
2019-03-15T15:15:11.281Z,13.50
2019-03-15T15:17:39.126Z,13.60
2019-03-15T15:20:07.185Z,13.60
2019-03-15T15:22:35.010Z,13.50
2019-03-15T15:25:02.982Z,13.50
2019-03-15T15:27:30.594Z,13.40
2019-03-15T15:29:57.963Z,13.30
2019-03-15T15:32:25.668Z,13.40
2019-03-15T15:34:53.638Z,13.20
2019-03-15T15:37:22.244Z,13.20
2019-03-15T15:39:49.515Z,13.20
2019-03-15T15:42:16.907Z,13.00
2019-03-15T15:44:44.957Z,13.00
2019-03-15T15:47:12.418Z,12.90
2019-03-15T15:49:41.177Z,12.90
2019-03-15T15:52:09.775Z,12.90
2019-03-15T15:54:37.538Z,12.80
2019-03-15T15:57:05.578Z,13.00
2019-03-15T15:59:34.326Z,13.00
2019-03-15T16:02:02.466Z,12.90
2019-03-15T16:04:30.026Z,13.10
2019-03-15T16:06:57.455Z,13.10
2019-03-15T16:09:25.482Z,13.00
2019-03-15T16:11:53.099Z,13.10
2019-03-15T16:14:21.014Z,13.00
2019-03-15T16:16:49.329Z,13.10
2019-03-15T16:19:17.352Z,13.10
2019-03-15T16:21:45.736Z,13.10
2019-03-15T16:24:13.388Z,13.20
2019-03-15T16:26:41.419Z,13.20
2019-03-15T16:29:09.673Z,13.20
2019-03-15T16:31:37.630Z,13.10
2019-03-15T16:34:05.448Z,13.10
2019-03-15T16:36:33.413Z,13.00
2019-03-15T16:39:01.563Z,12.90
2019-03-15T16:41:30.005Z,13.00
2019-03-15T16:43:57.321Z,13.00
2019-03-15T16:46:24.910Z,13.00
2019-03-15T16:48:52.179Z,12.90
2019-03-15T16:51:20.118Z,12.90
2019-03-15T16:53:48.052Z,13.00
2019-03-15T16:56:19.915Z,13.00
2019-03-15T16:58:46.529Z,12.90
2019-03-15T17:01:14.215Z,13.00
2019-03-15T17:03:42.168Z,12.90
2019-03-15T17:06:09.879Z,12.90
2019-03-15T17:08:37.275Z,12.80
2019-03-15T17:11:05.064Z,12.70
2019-03-15T17:13:32.200Z,12.70
2019-03-15T17:16:00.040Z,12.70
2019-03-15T17:18:28.073Z,12.60
2019-03-15T17:20:56.040Z,12.60
2019-03-15T17:23:23.762Z,12.60
2019-03-15T17:25:51.885Z,12.50
2019-03-15T17:28:19.212Z,12.50
2019-03-15T17:30:46.521Z,12.50
2019-03-15T17:33:13.827Z,12.50
2019-03-15T17:35:41.827Z,12.50
2019-03-15T17:38:09.711Z,12.50
2019-03-15T17:40:37.118Z,12.50
2019-03-15T17:43:08.045Z,12.40
2019-03-15T17:45:36.263Z,12.30
2019-03-15T17:48:04.020Z,12.40
2019-03-15T17:50:31.768Z,12.30
2019-03-15T17:52:59.505Z,12.30
2019-03-15T17:55:27.070Z,12.30
2019-03-15T17:57:54.852Z,12.30
2019-03-15T18:00:32.769Z,12.30
2019-03-15T18:03:01.065Z,12.30
2019-03-15T18:05:29.121Z,12.30
2019-03-15T18:07:57.439Z,12.40
2019-03-15T18:10:25.514Z,12.40
2019-03-15T18:12:53.126Z,12.30
2019-03-15T18:15:21.112Z,12.50
2019-03-15T18:17:48.711Z,12.40
2019-03-15T18:20:16.550Z,12.40
2019-03-15T18:22:45.123Z,12.40
2019-03-15T18:25:13.316Z,12.40
2019-03-15T18:27:41.249Z,12.40
2019-03-15T18:30:10.165Z,12.30
2019-03-15T18:32:38.009Z,12.40
2019-03-15T18:35:05.584Z,12.30
2019-03-15T18:37:32.975Z,12.20
2019-03-15T18:40:01.721Z,12.10
2019-03-15T18:42:29.512Z,12.10
2019-03-15T18:44:57.016Z,12.10
2019-03-15T18:47:24.719Z,12.00
2019-03-15T18:49:52.414Z,12.00
2019-03-15T18:52:20.518Z,11.90
2019-03-15T18:54:48.603Z,11.90
2019-03-15T18:57:16.329Z,11.80
2019-03-15T18:59:44.508Z,11.80
2019-03-15T19:02:12.169Z,11.80
2019-03-15T19:04:40.448Z,11.70
2019-03-15T19:07:08.234Z,11.70
2019-03-15T19:09:35.720Z,11.70
2019-03-15T19:12:03.769Z,11.60
2019-03-15T19:14:31.430Z,11.60
2019-03-15T19:16:59.765Z,11.60
2019-03-15T19:19:27.606Z,11.60
2019-03-15T19:21:55.540Z,11.60
2019-03-15T19:24:23.583Z,11.60
2019-03-15T19:26:51.255Z,11.50
2019-03-15T19:29:18.917Z,11.60
2019-03-15T19:31:46.639Z,11.50
2019-03-15T19:34:14.723Z,11.50
2019-03-15T19:36:42.703Z,11.50
2019-03-15T19:39:10.313Z,11.50
2019-03-15T19:41:38.351Z,11.50
2019-03-15T19:44:14.892Z,11.50
2019-03-15T19:46:45.080Z,11.60
2019-03-15T19:49:13.256Z,11.60
2019-03-15T19:51:40.805Z,11.60
2019-03-15T19:54:08.329Z,11.50
2019-03-15T19:56:35.755Z,11.50
2019-03-15T19:59:03.250Z,11.50
2019-03-15T20:01:31.021Z,11.60
2019-03-15T20:03:59.135Z,11.60
2019-03-15T20:06:26.661Z,11.60
2019-03-15T20:08:54.678Z,11.60
2019-03-15T20:11:22.648Z,11.60
2019-03-15T20:13:50.118Z,11.60
2019-03-15T20:16:17.570Z,11.70
2019-03-15T20:18:45.884Z,11.70
2019-03-15T20:21:13.220Z,11.80
2019-03-15T20:23:41.014Z,11.80
2019-03-15T20:26:08.310Z,11.80
2019-03-15T20:28:36.105Z,11.90
2019-03-15T20:31:03.915Z,11.90
2019-03-15T20:33:31.791Z,11.80
2019-03-15T20:35:59.219Z,11.80
2019-03-15T20:38:26.858Z,11.90
2019-03-15T20:40:54.443Z,11.90
2019-03-15T20:43:21.722Z,12.00
2019-03-15T20:45:48.912Z,11.90
2019-03-15T20:48:16.695Z,12.00
2019-03-15T20:50:47.141Z,12.00
2019-03-15T20:53:13.602Z,12.00
2019-03-15T20:55:41.722Z,11.90
2019-03-15T20:58:09.540Z,12.00
2019-03-15T21:00:37.981Z,12.00
2019-03-15T21:03:05.808Z,12.00
2019-03-15T21:05:33.350Z,12.00
2019-03-15T21:08:01.392Z,12.00
2019-03-15T21:10:28.843Z,12.00
2019-03-15T21:12:56.878Z,11.90
2019-03-15T21:15:24.392Z,11.90
2019-03-15T21:17:52.263Z,11.90
2019-03-15T21:20:22.343Z,11.80
2019-03-15T21:22:49.407Z,11.80
2019-03-15T21:25:16.850Z,11.70
2019-03-15T21:27:53.475Z,11.80
2019-03-15T21:30:15.007Z,11.70
2019-03-15T21:32:42.466Z,11.70
2019-03-15T21:35:10.339Z,11.70
2019-03-15T21:37:38.157Z,11.80
2019-03-15T21:40:07.833Z,11.80
2019-03-15T21:42:35.553Z,11.80
2019-03-15T21:45:03.551Z,11.80
2019-03-15T21:47:31.300Z,11.70
2019-03-15T21:49:59.030Z,11.80
2019-03-15T21:52:26.802Z,11.80
2019-03-15T21:54:54.786Z,11.80
2019-03-15T21:57:22.339Z,11.80
2019-03-15T21:59:50.044Z,11.80
2019-03-15T22:02:17.659Z,11.80
2019-03-15T22:04:45.885Z,11.80
2019-03-15T22:07:13.963Z,11.80
2019-03-15T22:09:41.959Z,11.90
2019-03-15T22:12:09.376Z,11.90
2019-03-15T22:14:36.653Z,11.90
2019-03-15T22:17:03.963Z,11.90
2019-03-15T22:19:31.634Z,11.90
2019-03-15T22:21:59.058Z,11.80
2019-03-15T22:24:26.382Z,11.60
2019-03-15T22:26:54.006Z,11.50
2019-03-15T22:29:21.569Z,11.30
2019-03-15T22:31:49.566Z,11.10
2019-03-15T22:34:17.010Z,11.00
2019-03-15T22:36:45.104Z,11.10
2019-03-15T22:39:12.419Z,11.00
2019-03-15T22:41:39.711Z,10.90
2019-03-15T22:44:07.258Z,11.00
2019-03-15T22:46:34.698Z,10.90
2019-03-15T22:49:02.423Z,10.80
2019-03-15T22:51:29.848Z,10.80
2019-03-15T22:53:57.703Z,10.70
2019-03-15T22:56:25.484Z,10.70
2019-03-15T22:58:53.606Z,10.70
2019-03-15T23:01:30.215Z,10.70
2019-03-15T23:03:50.970Z,10.60
2019-03-15T23:06:19.442Z,10.70
2019-03-15T23:08:47.438Z,10.50
2019-03-15T23:11:15.075Z,10.50
2019-03-15T23:13:43.387Z,10.50
2019-03-15T23:16:11.165Z,10.50
2019-03-15T23:18:38.813Z,10.50
2019-03-15T23:21:06.864Z,10.50
2019-03-15T23:23:34.349Z,10.40
2019-03-15T23:26:02.354Z,10.40
2019-03-15T23:28:29.989Z,10.30
2019-03-15T23:30:57.787Z,10.30
2019-03-15T23:33:25.383Z,10.40
2019-03-15T23:35:54.416Z,10.40
2019-03-15T23:38:22.147Z,10.40
2019-03-15T23:40:49.592Z,10.40
2019-03-15T23:43:16.869Z,10.30
2019-03-15T23:45:52.447Z,10.40
2019-03-15T23:48:20.509Z,10.30
2019-03-15T23:50:48.023Z,10.30
2019-03-15T23:53:15.864Z,10.30
2019-03-15T23:55:43.959Z,10.30
2019-03-15T23:58:12.264Z,10.30
